cover

 

Get it on iTunes StoreListen on Apple Music

Allen Watts

#Trackname / Key / BPM / Publish dateArtists, Remixers / Label
1 138 bpm, 9A / E minor, 2018-12-14, Trance,  0  106
2 138 bpm, 6A / G minor, 2018-12-14, Trance,  0  106
3 138 bpm, 6A / G minor, 2018-12-14, Trance,  0  106
4 138 bpm, 8A / A minor, 2018-11-30, Trance,  1  30
5 138 bpm, / , 2018-11-30, Trance,  0  30
6 138 bpm, 4B / Ab major, 2018-11-23, Trance,  0  15
7 140 bpm, 6A / G minor, 2018-11-23, Trance,  13  1
8 140 bpm, 1A / Ab minor, 2018-11-09, Trance,  1  53
9 138 bpm, 4A / F minor, 2018-11-05, Trance,  9  1
10 140 bpm, 9B / G major, 2018-10-26, Trance,  1  25
11 138 bpm, 4A / F minor, 2018-10-12, Trance,  0  50
12 138 bpm, 6A / G minor, 2018-10-05, Trance,  11  1
13 138 bpm, 3A / Bb minor, 2018-10-01, Trance,  0  25
14 138 bpm, 8A / A minor, 2018-09-21, Trance,  0  30
15 138 bpm, 4A / F minor, 2018-09-21, Trance,  0  32
16 138 bpm, 2A / Eb minor, 2018-09-14, Trance,  1  6
17 138 bpm, 6B / Bb major, 2018-08-31, Trance,  0  100
18 140 bpm, 7B / F major, 2018-08-27, Trance,  11  1
19 138 bpm, 9A / E minor, 2018-08-10, Trance,  1  43
20 138 bpm, 6A / G minor, 2018-08-10, Trance,  0  43
21 138 bpm, 9A / E minor, 2018-08-10, Trance,  7  1
22 138 bpm, 2A / Eb minor, 2018-07-27, Trance,  3  1
23 140 bpm, 6A / G minor, 2018-07-02, Trance,  3  14
24 138 bpm, 2B / F# major, 2018-07-02, Trance,  0  14
25 138 bpm, 7A / D minor, 2018-07-02, Trance,  0  14
26 138 bpm, 6B / Bb major, 2018-06-15, Trance,  17  1
27 138 bpm, 2B / F# major, 2018-06-11, Trance,  0  13
28 138 bpm, 7A / D minor, 2018-06-11, Trance,  0  13
29 140 bpm, 6A / G minor, 2018-06-08, Trance,  4  1
30 138 bpm, 3A / Bb minor, 2018-05-14, Trance,  2  2
31 138 bpm, 3A / Bb minor, 2018-05-14, Trance,  0  2
32 138 bpm, 9A / E minor, 2018-05-04, Trance,  0  7
33 138 bpm, 6A / G minor, 2018-04-27, Trance,  1  44
34 138 bpm, 6A / G minor, 2018-04-20, Trance,  25  1
35 138 bpm, 4A / F minor, 2018-04-13, Trance,  0  11
36 138 bpm, 4A / F minor, 2018-03-30, Trance,  1  36
37 138 bpm, 4A / F minor, 2018-03-30, Trance,  2  30
38 138 bpm, 10B / D major, 2018-03-09, Trance,  15  1
39 138 bpm, 12A / Db minor, 2018-03-02, Trance,  1  78
40 138 bpm, 4A / F minor, 2018-03-02, Trance,  0  78
41 138 bpm, 6A / G minor, 2018-02-23, Trance,  16  3
42 138 bpm, 9A / E minor, 2018-02-16, Trance,  0  40
43 138 bpm, 6A / G minor, 2018-02-16, Trance,  0  25
44 138 bpm, 5B / Eb major, 2018-02-16, Dance,  0  40
45 138 bpm, 2B / F# major, 2018-02-02, Trance,  1  100
46 138 bpm, 6A / G minor, 2018-02-02, Trance,  0  100
47 138 bpm, 2B / F# major, 2018-01-22, Trance,  11  1
48 138 bpm, 4A / F minor, 2018-01-15, Trance,  16  1
49 140 bpm, 6B / Bb major, 2017-12-18, Trance,  0  16
50 138 bpm, 5B / Eb major, 2017-12-15, Trance,  0  26
51 138 bpm, 2B / F# major, 2017-12-15, Trance,  0  109
52 138 bpm, 2A / Eb minor, 2017-12-15, Trance,  10  1
53 138 bpm, 6A / G minor, 2017-12-15, Trance,  5  1
54 138 bpm, 10A / B minor, 2017-12-11, Trance,  0  51
55 138 bpm, 8B / C major, 2017-12-08, Trance,  24  2
56 138 bpm, 6A / G minor, 2017-11-24, Trance,  9  1
57 138 bpm, 10A / B minor, 2017-11-10, Trance,  0  33
58 138 bpm, 4A / F minor, 2017-11-10, Trance,  0  33
59 138 bpm, 4B / Ab major, 2017-11-03, Trance,  0  40
60 138 bpm, 5B / Eb major, 2017-10-30, Trance,  24  1
61 138 bpm, 4B / Ab major, 2017-10-27, Trance,  1  25
62 138 bpm, 2A / Eb minor, 2017-10-20, Trance,  0  10
63 140 bpm, 6A / G minor, 2017-09-04, Trance,  2  8
64 138 bpm, 7A / D minor, 2017-08-25, Trance,  0  35
65 140 bpm, 6B / Bb major, 2017-08-21, Trance,  0  15
66 138 bpm, 9A / E minor, 2017-08-18, Trance,  2  15
67 140 bpm, 6B / Bb major, 2017-08-18, Trance,  1  15
68 138 bpm, 2A / Eb minor, 2017-08-18, Trance,  0  20
69 138 bpm, 2A / Eb minor, 2017-08-04, Trance,  1  35
70 138 bpm, 7A / D minor, 2017-07-17, Trance,  10  1
71 138 bpm, 9A / E minor, 2017-07-10, Trance,  3  2
72 138 bpm, 9A / E minor, 2017-07-10, Trance,  8  2
73 138 bpm, 4B / Ab major, 2017-07-07, Trance,  0  20
74 140 bpm, 6B / Bb major, 2017-07-07, Trance,  2  2
75 140 bpm, 6B / Bb major, 2017-07-07, Trance,  0  2
76 138 bpm, 2A / Eb minor, 2017-07-07, Trance,  0  18
77 138 bpm, 2B / F# major, 2017-06-30, Trance,  0  100
78 140 bpm, 6A / G minor, 2017-06-30, Trance,  0  100
79 138 bpm, 2A / Eb minor, 2017-06-23, Trance,  3  15
80 138 bpm, 2A / Eb minor, 2017-06-23, Trance,  4  1
81 138 bpm, 2B / F# major, 2017-06-09, Trance,  0  20
82 138 bpm, 4B / Ab major, 2017-06-02, Trance,  0  40
83 138 bpm, 2A / Eb minor, 2017-05-12, Trance,  25  1
84 138 bpm, 7A / D minor, 2017-04-28, Trance,  1  25
85 138 bpm, 10B / D major, 2017-04-28, Trance,  0  15
86 140 bpm, 6A / G minor, 2017-04-28, Trance,  1  15
87 138 bpm, 2B / F# major, 2017-04-21, Trance,  1  40
88 138 bpm, 4B / Ab major, 2017-04-14, Trance,  1  20
89 138 bpm, 4B / Ab major, 2017-04-14, Trance,  0  40
90 138 bpm, 4B / Ab major, 2017-04-07, Trance,  2  25
91 138 bpm, 7A / D minor, 2017-03-17, Trance,  4  1
92 140 bpm, 6A / G minor, 2017-03-03, Trance,  23  1
93 140 bpm, 3A / Bb minor, 2017-03-03, Trance,  0  20
94 138 bpm, 4A / F minor, 2017-02-20, Trance,  0  25
95 138 bpm, 10B / D major, 2017-02-14, Trance,  2  5
96 138 bpm, 4B / Ab major, 2017-01-30, Trance,  20  1
97 138 bpm, 7B / F major, 2017-01-20, Trance,  0  15
98 138 bpm, 4A / F minor, 2017-01-13, Trance,  1  20
99 140 bpm, 3A / Bb minor, 2017-01-09, Trance,  15  1
100 138 bpm, 1A / Ab minor, 2017-01-02, Trance,  0  23
×

Sign in

Sign in to access your personalized pages, follow artists and labels you love, and create playlists fromyour favorite tracks.

Please wait...